Time;durP1;ratioP1;P1;durP2;ratioP2;P2;SDS_P1;SDS_P2;PMS_P1;PMS_P2;Temp;Humidity;BMP_temperature;BMP_pressure;BME280_temperature;BME280_humidity;BME280_pressure;Samples;Min_cycle;Max_cycle;Signal;HPM_P1;HPM_P2
2022/12/19 00:00:37;;;;;;;23.90;20.60;;;0.00;99.90;;;;;;4993307;28;20990;-77
2022/12/19 00:03:05;;;;;;;23.90;20.53;;;0.00;99.90;;;;;;4976937;28;20847;-77
2022/12/19 00:05:37;;;;;;;22.53;20.10;;;0.00;99.90;;;;;;4976893;28;20480;-77
2022/12/19 00:08:06;;;;;;;24.23;21.50;;;0.00;99.90;;;;;;4993227;28;21027;-77
2022/12/19 00:10:54;;;;;;;22.90;20.43;;;0.00;99.90;;;;;;4977115;28;20449;-77
2022/12/19 00:13:23;;;;;;;22.13;19.80;;;0.00;99.90;;;;;;4993092;28;20448;-77
2022/12/19 00:15:51;;;;;;;23.20;19.43;;;0.10;99.90;;;;;;4978111;28;20503;-77
2022/12/19 00:18:20;;;;;;;22.50;19.83;;;0.00;99.90;;;;;;4997554;28;20509;-76
2022/12/19 00:20:55;;;;;;;24.30;21.50;;;0.10;99.90;;;;;;4997856;28;20448;-77
2022/12/19 00:23:24;;;;;;;23.47;20.27;;;0.10;99.90;;;;;;4996022;28;20498;-77
2022/12/19 00:26:05;;;;;;;23.30;20.07;;;0.10;99.90;;;;;;4996076;28;20886;-77
2022/12/19 00:28:34;;;;;;;24.07;20.03;;;0.10;99.90;;;;;;4996813;28;20441;-77
2022/12/19 00:31:03;;;;;;;23.23;20.20;;;0.10;99.90;;;;;;4996446;28;20457;-77
2022/12/19 00:33:32;;;;;;;23.10;20.30;;;0.10;99.90;;;;;;4996262;28;20456;-77
2022/12/19 00:36:05;;;;;;;26.63;21.33;;;0.10;99.90;;;;;;4997474;28;20468;-77
2022/12/19 00:38:34;;;;;;;24.60;20.80;;;0.20;99.90;;;;;;4997775;28;20443;-77
2022/12/19 00:41:12;;;;;;;27.63;23.30;;;0.20;99.90;;;;;;4996555;28;20461;-78
2022/12/19 00:43:41;;;;;;;25.40;21.27;;;0.20;99.90;;;;;;4996658;28;20440;-78
2022/12/19 00:46:11;;;;;;;26.87;23.60;;;0.20;99.90;;;;;;4997539;28;20468;-78
2022/12/19 00:48:40;;;;;;;26.57;22.50;;;0.30;99.90;;;;;;4996031;28;20499;-77
2022/12/19 00:51:11;;;;;;;26.30;23.03;;;0.20;99.90;;;;;;4996331;28;20440;-78
2022/12/19 00:53:43;;;;;;;27.60;22.70;;;0.30;99.90;;;;;;4996898;28;20478;-77
2022/12/19 00:56:15;;;;;;;24.73;22.10;;;0.30;99.90;;;;;;4996510;28;20472;-78
2022/12/19 00:58:43;;;;;;;27.67;23.97;;;0.30;99.90;;;;;;4996899;28;21033;-77
2022/12/19 01:01:17;;;;;;;25.37;21.73;;;0.30;99.90;;;;;;4997184;28;20488;-77
2022/12/19 01:03:46;;;;;;;26.20;23.37;;;0.40;99.90;;;;;;4998058;28;20421;-78
2022/12/19 01:06:35;;;;;;;28.63;23.20;;;0.40;99.90;;;;;;4996350;28;20469;-78
2022/12/19 01:09:09;;;;;;;28.73;23.70;;;0.40;99.90;;;;;;4996408;28;20825;-78
2022/12/19 01:14:25;;;;;;;27.90;23.70;;;0.40;99.90;;;;;;4996383;28;20465;-78
2022/12/19 01:16:53;;;;;;;28.20;24.50;;;0.40;99.90;;;;;;4996378;28;20448;-78
2022/12/19 01:19:21;;;;;;;30.10;24.90;;;0.40;99.90;;;;;;4996508;28;21026;-78
2022/12/19 01:21:49;;;;;;;27.97;23.63;;;0.40;99.90;;;;;;4997494;28;20460;-78
2022/12/19 01:24:18;;;;;;;26.97;23.73;;;0.50;99.90;;;;;;4996279;28;20476;-77
2022/12/19 01:26:51;;;;;;;28.60;24.07;;;0.50;99.90;;;;;;4996110;28;20500;-78
2022/12/19 01:29:19;;;;;;;29.53;24.37;;;0.50;99.90;;;;;;4996082;28;20456;-78
2022/12/19 01:31:48;;;;;;;28.80;25.07;;;0.60;99.90;;;;;;4994967;28;20463;-78
2022/12/19 01:34:16;;;;;;;28.30;25.30;;;0.50;99.90;;;;;;4995093;28;20831;-77
2022/12/19 01:36:44;;;;;;;29.90;25.03;;;0.50;99.90;;;;;;4994491;28;20462;-78
2022/12/19 01:39:13;;;;;;;30.10;25.60;;;0.50;99.90;;;;;;4996120;28;20777;-78
2022/12/19 01:41:41;;;;;;;32.47;25.90;;;0.60;99.90;;;;;;4994484;28;20516;-78
2022/12/19 01:44:10;;;;;;;30.20;25.00;;;0.60;99.90;;;;;;4994739;28;20480;-77
2022/12/19 01:46:42;;;;;;;28.90;25.00;;;0.60;99.90;;;;;;4994361;28;20479;-77
2022/12/19 01:49:16;;;;;;;31.93;25.27;;;0.60;99.90;;;;;;4994053;28;20479;-76
2022/12/19 01:51:48;;;;;;;29.07;24.57;;;0.60;99.90;;;;;;4994515;28;20941;-77
2022/12/19 01:54:21;;;;;;;30.60;26.67;;;0.60;99.90;;;;;;4994357;28;20896;-78
2022/12/19 01:56:51;;;;;;;33.03;27.47;;;0.60;99.90;;;;;;4993487;28;20463;-78
2022/12/19 01:59:25;;;;;;;33.93;28.00;;;0.60;99.90;;;;;;4995455;28;20452;-78
2022/12/19 02:01:58;;;;;;;34.10;27.67;;;0.70;99.90;;;;;;4994597;28;20503;-78
2022/12/19 02:04:28;;;;;;;30.63;25.33;;;0.60;99.90;;;;;;4995397;28;20803;-77
2022/12/19 02:07:03;;;;;;;32.40;25.73;;;0.70;99.90;;;;;;4994196;28;20545;-78
2022/12/19 02:09:44;;;;;;;33.80;26.50;;;0.70;99.90;;;;;;4994509;28;20958;-77
2022/12/19 02:12:14;;;;;;;33.07;27.67;;;0.70;99.90;;;;;;4998401;28;20445;-77
2022/12/19 02:14:44;;;;;;;32.47;25.97;;;0.70;99.90;;;;;;4995344;28;20461;-76
2022/12/19 02:17:20;;;;;;;32.97;26.27;;;0.70;99.90;;;;;;4993777;28;21061;-77
2022/12/19 02:20:24;;;;;;;32.67;26.37;;;0.70;99.90;;;;;;4994397;28;20491;-77
2022/12/19 02:23:10;;;;;;;30.67;27.03;;;0.70;99.90;;;;;;4978416;28;20449;-78
2022/12/19 02:26:01;;;;;;;32.30;26.70;;;0.70;99.90;;;;;;4994324;28;20480;-77
2022/12/19 02:28:43;;;;;;;31.60;26.50;;;0.80;99.90;;;;;;4993736;28;20468;-78
2022/12/19 02:31:19;;;;;;;29.80;26.13;;;0.80;99.90;;;;;;4993829;28;20452;-78
2022/12/19 02:33:55;;;;;;;34.77;26.70;;;0.70;99.90;;;;;;4994009;28;20498;-77
2022/12/19 02:36:29;;;;;;;33.23;27.23;;;0.80;99.90;;;;;;4993543;28;20514;-77
2022/12/19 02:39:07;;;;;;;31.63;26.80;;;0.80;99.90;;;;;;4993904;28;20486;-77
2022/12/19 02:41:43;;;;;;;30.23;25.27;;;0.90;99.90;;;;;;4993951;28;20460;-77
2022/12/19 02:44:22;;;;;;;31.93;27.23;;;0.80;99.90;;;;;;4993667;28;20559;-77
2022/12/19 02:46:53;;;;;;;33.00;27.20;;;0.90;99.90;;;;;;4992519;28;20520;-77
2022/12/19 02:49:25;;;;;;;35.90;27.70;;;0.90;99.90;;;;;;4993552;28;20475;-77
2022/12/19 02:52:09;;;;;;;33.43;26.10;;;0.90;99.90;;;;;;4993500;28;20450;-77
2022/12/19 02:54:37;;;;;;;36.80;27.10;;;0.90;99.90;;;;;;4993367;28;20559;-77
2022/12/19 02:57:20;;;;;;;34.77;26.80;;;0.90;99.90;;;;;;4993257;28;20444;-77
2022/12/19 03:00:02;;;;;;;32.83;26.93;;;0.90;99.90;;;;;;4995367;28;20424;-78
2022/12/19 03:02:41;;;;;;;34.10;27.67;;;0.90;99.90;;;;;;4996026;28;20484;-78
2022/12/19 03:05:24;;;;;;;31.50;25.53;;;1.00;99.90;;;;;;4995861;28;20477;-78
2022/12/19 03:07:59;;;;;;;34.27;27.87;;;1.00;99.90;;;;;;4995586;28;20467;-78
2022/12/19 03:10:34;;;;;;;30.10;26.10;;;1.00;99.90;;;;;;4997203;28;20518;-78
2022/12/19 03:13:07;;;;;;;30.27;24.27;;;0.90;99.90;;;;;;4995693;28;20540;-78
2022/12/19 03:15:39;;;;;;;33.90;26.83;;;1.00;99.90;;;;;;4995294;28;20476;-77
2022/12/19 03:18:10;;;;;;;33.50;26.60;;;1.00;99.90;;;;;;4996271;28;20448;-77
2022/12/19 03:20:44;;;;;;;35.40;26.93;;;1.00;99.90;;;;;;4996618;28;20476;-77
2022/12/19 03:23:14;;;;;;;33.20;27.27;;;1.00;99.90;;;;;;4994927;28;20449;-78
2022/12/19 03:25:45;;;;;;;31.40;25.70;;;1.10;99.90;;;;;;4994901;28;20465;-77
2022/12/19 03:28:21;;;;;;;32.37;27.90;;;1.10;99.90;;;;;;4995286;28;21000;-78
2022/12/19 03:30:49;;;;;;;35.47;27.20;;;1.10;99.90;;;;;;4995627;28;20448;-77
2022/12/19 03:33:20;;;;;;;32.50;27.23;;;1.20;99.90;;;;;;4996547;28;20863;-78
2022/12/19 03:35:50;;;;;;;32.47;27.10;;;1.20;99.90;;;;;;4993438;28;20535;-77
2022/12/19 03:38:20;;;;;;;35.17;27.20;;;1.20;99.90;;;;;;4995078;28;20434;-77
2022/12/19 03:40:49;;;;;;;35.87;28.10;;;1.20;99.90;;;;;;4994464;28;20457;-77
2022/12/19 03:43:18;;;;;;;31.90;26.47;;;1.20;99.90;;;;;;4996322;28;20441;-77
2022/12/19 03:45:53;;;;;;;37.03;28.90;;;1.30;99.90;;;;;;4996161;28;20464;-78
2022/12/19 03:48:30;;;;;;;34.93;27.83;;;1.30;99.90;;;;;;4996116;28;20486;-77
2022/12/19 03:51:08;;;;;;;34.10;25.73;;;1.30;99.90;;;;;;4995710;28;20433;-77
2022/12/19 03:53:48;;;;;;;34.30;27.13;;;1.30;99.90;;;;;;4993942;28;20517;-76
2022/12/19 03:56:25;;;;;;;34.37;26.73;;;1.30;99.90;;;;;;4993018;28;20445;-77
2022/12/19 03:59:00;;;;;;;33.70;27.07;;;1.40;99.90;;;;;;4992899;28;20924;-76
2022/12/19 04:01:29;;;;;;;34.17;28.73;;;1.40;99.90;;;;;;4994496;28;20483;-76
2022/12/19 04:04:00;;;;;;;38.20;31.20;;;1.40;99.90;;;;;;4993102;28;20453;-76
2022/12/19 04:06:30;;;;;;;34.10;28.50;;;1.40;99.90;;;;;;4995551;28;20434;-77
2022/12/19 04:09:00;;;;;;;35.00;29.57;;;1.50;99.90;;;;;;4999351;28;20524;-79
2022/12/19 04:11:34;;;;;;;34.53;26.70;;;1.50;99.90;;;;;;5002689;28;20801;-78
2022/12/19 04:14:07;;;;;;;36.20;30.20;;;1.50;99.90;;;;;;5004287;28;20534;-78
2022/12/19 04:16:43;;;;;;;36.50;28.40;;;1.50;99.90;;;;;;5003306;28;20447;-79
2022/12/19 04:19:18;;;;;;;38.03;28.80;;;1.50;99.90;;;;;;5004803;28;20453;-79
2022/12/19 04:21:53;;;;;;;34.00;28.03;;;1.50;99.90;;;;;;5003642;28;20481;-78
2022/12/19 04:24:26;;;;;;;32.83;28.43;;;1.50;99.90;;;;;;5000972;28;20472;-78
2022/12/19 04:26:55;;;;;;;35.00;29.53;;;1.50;99.90;;;;;;5000156;28;20463;-78
2022/12/19 04:29:26;;;;;;;36.20;28.00;;;1.60;99.90;;;;;;5000832;28;20504;-78
2022/12/19 04:31:55;;;;;;;34.00;27.83;;;1.50;99.90;;;;;;5003630;28;20914;-78
2022/12/19 04:34:24;;;;;;;33.03;27.13;;;1.60;99.90;;;;;;5004410;28;20470;-78
2022/12/19 04:36:52;;;;;;;34.20;27.97;;;1.60;99.90;;;;;;5003135;28;20457;-79
2022/12/19 04:39:20;;;;;;;37.83;30.43;;;1.60;99.90;;;;;;5005685;28;20448;-79
2022/12/19 04:41:49;;;;;;;38.10;30.00;;;1.60;99.90;;;;;;5005419;28;20476;-78
2022/12/19 04:44:17;;;;;;;39.73;31.90;;;2.20;99.90;;;;;;5006521;28;20484;-79
2022/12/19 04:46:45;;;;;;;43.00;33.10;;;1.70;99.90;;;;;;5005613;28;21078;-79
2022/12/19 04:49:14;;;;;;;39.37;28.90;;;1.60;99.90;;;;;;5006649;28;20556;-78
2022/12/19 04:51:43;;;;;;;47.13;36.73;;;1.60;99.90;;;;;;5004998;28;20815;-79
2022/12/19 04:54:11;;;;;;;38.40;31.87;;;1.70;99.90;;;;;;5004124;28;20882;-79
2022/12/19 04:56:40;;;;;;;37.83;30.17;;;1.70;99.90;;;;;;5004547;28;20453;-79
2022/12/19 04:59:08;;;;;;;39.93;31.23;;;1.70;99.90;;;;;;5005135;28;20465;-79
2022/12/19 05:01:36;;;;;;;38.00;30.40;;;1.70;99.90;;;;;;5005017;28;20448;-79
2022/12/19 05:04:04;;;;;;;36.53;30.60;;;1.70;99.90;;;;;;5006896;28;20882;-78
2022/12/19 05:06:33;;;;;;;36.60;30.83;;;1.70;99.90;;;;;;5006816;28;20449;-78
2022/12/19 05:09:02;;;;;;;39.67;32.20;;;1.70;99.90;;;;;;5007201;28;20473;-78
2022/12/19 05:11:30;;;;;;;37.47;30.90;;;1.80;99.90;;;;;;5006960;28;20452;-79
2022/12/19 05:14:01;;;;;;;38.87;31.00;;;1.70;99.90;;;;;;5007010;28;20812;-79
2022/12/19 05:16:29;;;;;;;41.13;32.53;;;1.70;99.90;;;;;;5005268;28;20449;-79
2022/12/19 05:18:57;;;;;;;40.57;30.13;;;1.80;99.90;;;;;;5005940;28;20458;-79
2022/12/19 05:21:25;;;;;;;45.00;32.53;;;1.80;99.90;;;;;;5004886;28;20450;-79
2022/12/19 05:23:54;;;;;;;38.23;29.23;;;1.80;99.90;;;;;;5002783;28;20516;-79
2022/12/19 05:26:23;;;;;;;40.70;30.30;;;1.80;99.90;;;;;;5005860;28;20435;-79
2022/12/19 05:28:52;;;;;;;41.27;30.93;;;1.80;99.90;;;;;;5005676;28;20485;-79
2022/12/19 05:31:21;;;;;;;44.53;35.67;;;1.80;99.90;;;;;;5006070;28;20981;-79
2022/12/19 05:33:50;;;;;;;38.60;30.20;;;1.80;99.90;;;;;;5007145;28;20450;-78
2022/12/19 05:36:19;;;;;;;37.50;30.70;;;1.80;99.90;;;;;;5005782;28;20874;-80
2022/12/19 05:38:47;;;;;;;39.63;31.10;;;1.80;99.90;;;;;;5006080;28;20456;-78
2022/12/19 05:41:17;;;;;;;38.80;31.17;;;1.80;99.90;;;;;;5005398;28;20532;-78
2022/12/19 05:43:50;;;;;;;40.60;31.60;;;1.80;99.90;;;;;;5007930;28;20440;-79
2022/12/19 05:46:18;;;;;;;36.30;30.37;;;1.80;99.90;;;;;;5004766;28;20958;-78
2022/12/19 05:48:47;;;;;;;40.97;32.00;;;1.90;99.90;;;;;;5006828;28;20580;-79
2022/12/19 05:51:16;;;;;;;39.83;31.00;;;1.90;99.90;;;;;;5006231;28;20963;-79
2022/12/19 05:53:44;;;;;;;37.50;30.47;;;1.90;99.90;;;;;;5005703;28;20507;-78
2022/12/19 05:56:14;;;;;;;37.07;30.10;;;1.90;99.90;;;;;;5010219;28;20475;-79
2022/12/19 05:58:43;;;;;;;37.50;29.63;;;1.90;99.90;;;;;;5009092;28;20451;-79
2022/12/19 06:01:15;;;;;;;39.50;31.00;;;1.90;99.90;;;;;;5010336;28;20972;-79
2022/12/19 06:03:44;;;;;;;38.03;31.23;;;2.00;99.90;;;;;;5007693;28;20443;-79
2022/12/19 06:06:16;;;;;;;39.33;30.77;;;2.00;99.90;;;;;;5006516;28;20470;-79
2022/12/19 06:08:45;;;;;;;40.30;30.53;;;1.90;99.90;;;;;;5007136;28;20473;-79
2022/12/19 06:11:14;;;;;;;41.33;32.20;;;2.00;99.90;;;;;;5010631;28;20453;-79
2022/12/19 06:13:42;;;;;;;42.80;32.40;;;2.00;99.90;;;;;;5007363;28;20451;-80
2022/12/19 06:16:13;;;;;;;42.23;32.90;;;2.00;99.90;;;;;;5006086;28;20495;-80
2022/12/19 06:18:43;;;;;;;38.57;31.77;;;2.00;99.90;;;;;;5007134;28;20456;-79
2022/12/19 06:21:14;;;;;;;42.60;33.40;;;2.00;99.90;;;;;;5006598;28;20466;-79
2022/12/19 06:23:42;;;;;;;40.47;33.37;;;2.10;99.90;;;;;;5004426;28;20453;-79
2022/12/19 06:26:13;;;;;;;38.57;32.07;;;2.10;99.90;;;;;;5004177;28;20552;-79
2022/12/19 06:28:47;;;;;;;44.10;32.80;;;2.10;99.90;;;;;;5005100;28;20457;-79
2022/12/19 06:31:17;;;;;;;43.27;31.73;;;2.10;99.90;;;;;;5002368;28;20463;-79
2022/12/19 06:33:45;;;;;;;48.13;34.10;;;2.10;99.90;;;;;;5002320;28;20879;-80
2022/12/19 06:36:18;;;;;;;40.67;33.23;;;2.10;99.90;;;;;;5003164;28;20983;-80
2022/12/19 06:38:47;;;;;;;42.57;31.83;;;2.10;99.90;;;;;;5005284;28;20941;-80
2022/12/19 06:44:02;;;;;;;44.80;32.63;;;2.10;99.90;;;;;;5001306;28;20450;-80
2022/12/19 06:46:32;;;;;;;43.43;32.10;;;2.10;99.90;;;;;;5001674;28;20459;-80
2022/12/19 06:49:00;;;;;;;40.50;32.03;;;2.10;99.90;;;;;;5001663;28;20503;-80
2022/12/19 06:51:28;;;;;;;46.10;36.00;;;2.20;99.90;;;;;;5004061;28;20513;-80
2022/12/19 06:53:57;;;;;;;42.00;32.70;;;2.20;99.90;;;;;;5001371;28;20452;-81
2022/12/19 06:56:25;;;;;;;43.60;36.00;;;2.20;99.90;;;;;;4999612;28;20460;-81
2022/12/19 06:58:53;;;;;;;43.67;33.43;;;2.20;99.90;;;;;;5000937;28;20464;-80
2022/12/19 07:01:34;;;;;;;45.53;33.80;;;2.20;99.90;;;;;;5002770;28;20440;-81
2022/12/19 07:04:04;;;;;;;40.60;32.27;;;2.20;99.90;;;;;;5001173;28;20457;-81
2022/12/19 07:06:32;;;;;;;49.03;35.63;;;2.20;99.90;;;;;;5003817;28;20491;-82
2022/12/19 07:09:01;;;;;;;46.93;33.73;;;2.30;99.90;;;;;;5004608;28;20487;-82
2022/12/19 07:11:29;;;;;;;41.87;34.10;;;2.30;99.90;;;;;;5004850;28;20463;-82
2022/12/19 07:13:57;;;;;;;38.80;32.83;;;2.30;99.90;;;;;;5006348;28;20458;-82
2022/12/19 07:16:26;;;;;;;43.00;32.60;;;2.30;99.90;;;;;;5005656;28;20440;-82
2022/12/19 07:18:55;;;;;;;42.13;33.77;;;2.30;99.90;;;;;;5005864;28;20483;-83
2022/12/19 07:21:24;;;;;;;40.63;32.60;;;2.30;99.90;;;;;;5007143;28;20454;-82
2022/12/19 07:23:53;;;;;;;45.83;37.20;;;2.40;99.90;;;;;;5007635;28;20470;-82
2022/12/19 07:26:22;;;;;;;42.10;33.87;;;2.40;99.90;;;;;;5009936;28;20445;-83
2022/12/19 07:28:50;;;;;;;43.23;35.80;;;2.40;99.90;;;;;;5009966;28;20475;-83
2022/12/19 07:31:18;;;;;;;46.73;35.50;;;2.50;99.90;;;;;;5008206;28;20502;-83
2022/12/19 07:33:46;;;;;;;49.90;35.20;;;2.40;99.90;;;;;;4997494;28;20510;-83
2022/12/19 07:36:14;;;;;;;46.00;34.90;;;2.40;99.90;;;;;;4997990;28;20480;-84
2022/12/19 07:38:44;;;;;;;47.33;35.67;;;2.50;99.90;;;;;;4998834;28;20479;-84
2022/12/19 07:41:12;;;;;;;47.00;34.60;;;2.50;99.90;;;;;;4999205;28;20452;-83
2022/12/19 07:43:40;;;;;;;47.80;37.23;;;2.50;99.90;;;;;;4998673;28;20808;-83
2022/12/19 07:46:09;;;;;;;49.07;36.97;;;2.50;99.90;;;;;;4998492;28;20464;-83
2022/12/19 07:48:37;;;;;;;46.13;35.20;;;2.60;99.90;;;;;;5002874;28;20460;-83
2022/12/19 07:51:06;;;;;;;47.40;35.00;;;2.70;99.90;;;;;;5003368;28;20489;-83
2022/12/19 07:53:34;;;;;;;48.30;36.80;;;2.70;99.90;;;;;;5003357;28;20462;-83
2022/12/19 07:56:03;;;;;;;43.50;33.40;;;2.60;99.90;;;;;;5002034;28;20469;-83
2022/12/19 07:58:32;;;;;;;52.07;38.07;;;2.60;99.90;;;;;;4999968;28;20473;-82
2022/12/19 08:01:01;;;;;;;49.40;35.77;;;2.70;99.90;;;;;;4999469;28;20476;-82
2022/12/19 08:03:32;;;;;;;49.80;36.80;;;2.60;99.90;;;;;;4999479;28;20859;-83
2022/12/19 08:06:01;;;;;;;49.07;36.73;;;2.70;99.90;;;;;;4998748;28;20811;-83
2022/12/19 08:08:30;;;;;;;49.57;36.37;;;2.80;99.90;;;;;;4999033;28;20864;-83
2022/12/19 08:11:07;;;;;;;49.23;37.40;;;2.70;99.90;;;;;;4999074;28;20499;-83
2022/12/19 08:13:36;;;;;;;47.47;36.03;;;2.80;99.90;;;;;;4998926;28;20442;-85
2022/12/19 08:16:12;;;;;;;49.83;38.13;;;2.80;99.90;;;;;;4998197;28;20475;-85
2022/12/19 08:18:40;;;;;;;50.50;37.10;;;2.80;99.90;;;;;;4998882;28;20506;-85
2022/12/19 08:21:09;;;;;;;50.60;35.73;;;2.80;99.90;;;;;;5000048;28;20475;-85
2022/12/19 08:23:37;;;;;;;53.43;38.63;;;3.10;99.90;;;;;;4999372;28;20455;-85
2022/12/19 08:26:10;;;;;;;47.30;35.90;;;2.90;99.90;;;;;;4998517;28;20484;-85
2022/12/19 08:28:39;;;;;;;48.57;35.47;;;2.90;99.90;;;;;;5000395;28;20440;-84
2022/12/19 08:31:08;;;;;;;54.17;38.57;;;3.00;99.90;;;;;;4998719;28;20479;-84
2022/12/19 08:33:37;;;;;;;50.20;38.63;;;3.00;99.90;;;;;;4998097;28;20483;-85
2022/12/19 08:36:06;;;;;;;47.50;37.47;;;3.00;99.90;;;;;;4997094;28;20565;-84
2022/12/19 08:38:35;;;;;;;60.13;41.20;;;3.00;99.90;;;;;;4999119;28;20440;-84
2022/12/19 08:41:04;;;;;;;53.37;40.10;;;3.00;99.90;;;;;;4997547;28;20513;-84
2022/12/19 08:43:34;;;;;;;51.00;37.90;;;3.00;99.90;;;;;;4999261;28;20450;-84
2022/12/19 08:46:02;;;;;;;52.27;39.87;;;3.10;99.90;;;;;;4999810;28;20977;-85
2022/12/19 08:48:31;;;;;;;58.30;38.57;;;3.00;99.90;;;;;;4999743;28;20459;-85
2022/12/19 08:51:02;;;;;;;58.30;40.90;;;3.10;99.90;;;;;;4999256;28;20577;-85
2022/12/19 08:53:33;;;;;;;48.07;37.20;;;3.10;99.90;;;;;;4999635;28;20530;-86
2022/12/19 08:56:04;;;;;;;53.53;40.57;;;3.10;99.90;;;;;;5001003;28;20473;-85
2022/12/19 08:58:34;;;;;;;52.17;38.73;;;3.10;99.90;;;;;;5000016;28;20503;-85
2022/12/19 09:01:05;;;;;;;55.03;39.77;;;3.20;99.90;;;;;;5000522;28;20517;-85
2022/12/19 09:03:33;;;;;;;49.10;39.30;;;3.50;99.90;;;;;;5003869;28;20461;-86
2022/12/19 09:06:21;;;;;;;54.90;39.83;;;3.20;99.90;;;;;;5003589;28;20447;-85
2022/12/19 09:08:49;;;;;;;57.30;40.90;;;3.20;99.90;;;;;;5004192;28;20449;-85
2022/12/19 09:11:20;;;;;;;53.17;39.23;;;3.30;99.90;;;;;;5002352;28;20561;-86
2022/12/19 09:13:50;;;;;;;51.47;39.67;;;3.30;99.90;;;;;;5001293;28;20455;-86
2022/12/19 09:16:20;;;;;;;49.67;38.63;;;3.30;99.90;;;;;;5000726;28;20893;-86
2022/12/19 09:18:50;;;;;;;54.20;39.90;;;3.40;99.90;;;;;;5001182;28;20459;-85
2022/12/19 09:21:19;;;;;;;52.73;39.97;;;3.40;99.90;;;;;;5002217;28;20452;-85
2022/12/19 09:23:49;;;;;;;50.27;40.00;;;3.40;99.90;;;;;;4999898;28;20449;-85
2022/12/19 09:26:17;;;;;;;52.60;38.80;;;3.40;99.90;;;;;;5000074;28;20468;-85
2022/12/19 09:28:47;;;;;;;46.03;37.27;;;4.10;99.90;;;;;;5000882;28;20487;-86
2022/12/19 09:31:19;;;;;;;53.97;40.50;;;3.50;99.90;;;;;;5000778;28;20471;-85
2022/12/19 09:33:47;;;;;;;53.60;39.70;;;3.50;99.90;;;;;;4999136;28;20453;-86
2022/12/19 09:36:19;;;;;;;50.77;40.13;;;3.70;99.90;;;;;;4999001;28;20532;-86
2022/12/19 09:38:48;;;;;;;50.60;39.07;;;3.60;99.90;;;;;;4999605;28;20428;-86
2022/12/19 09:41:40;;;;;;;51.93;38.93;;;3.60;99.90;;;;;;5000063;28;20859;-85
2022/12/19 09:44:20;;;;;;;52.37;40.13;;;3.60;99.90;;;;;;4998792;28;20449;-86
2022/12/19 09:46:55;;;;;;;47.60;38.27;;;3.70;99.90;;;;;;5000006;28;20471;-86
2022/12/19 09:49:27;;;;;;;58.50;41.60;;;3.70;99.90;;;;;;4999260;28;20451;-86
2022/12/19 09:52:00;;;;;;;53.57;41.07;;;3.70;99.90;;;;;;5000985;28;20820;-85
2022/12/19 09:54:35;;;;;;;49.83;39.37;;;3.90;99.90;;;;;;4999658;28;20996;-85
2022/12/19 09:57:05;;;;;;;48.43;38.80;;;3.80;99.90;;;;;;4999583;28;20492;-85
2022/12/19 09:59:41;;;;;;;49.00;38.00;;;4.00;99.90;;;;;;5001626;28;20421;-84
2022/12/19 10:02:33;;;;;;;52.50;40.33;;;3.90;99.90;;;;;;4999605;28;20448;-84
2022/12/19 10:05:07;;;;;;;49.20;39.03;;;3.90;99.90;;;;;;4998808;28;20476;-84
2022/12/19 10:07:53;;;;;;;49.30;38.63;;;3.90;99.90;;;;;;5002199;28;20456;-84
2022/12/19 10:10:45;;;;;;;47.80;38.40;;;4.00;99.90;;;;;;4999467;28;20452;-84
2022/12/19 10:13:51;;;;;;;46.97;37.37;;;4.10;99.90;;;;;;4999873;28;20469;-84
2022/12/19 10:16:28;;;;;;;50.10;39.40;;;4.00;99.90;;;;;;4997515;28;20456;-84
2022/12/19 10:19:01;;;;;;;47.43;40.20;;;4.10;99.90;;;;;;4998622;28;20455;-85
2022/12/19 10:21:34;;;;;;;50.13;39.70;;;4.20;99.90;;;;;;4999712;28;20427;-84
2022/12/19 10:24:48;;;;;;;47.20;38.20;;;4.20;99.90;;;;;;4997368;28;20469;-85
2022/12/19 10:27:45;;;;;;;44.77;36.83;;;4.20;99.90;;;;;;4996903;28;20459;-85
2022/12/19 10:30:27;;;;;;;46.00;37.83;;;4.30;99.90;;;;;;4996884;28;20479;-84
2022/12/19 10:33:09;;;;;;;45.07;37.97;;;4.30;99.90;;;;;;5000597;28;20437;-85
2022/12/19 10:35:57;;;;;;;49.30;39.57;;;4.30;99.90;;;;;;5000472;28;20479;-84
2022/12/19 10:38:35;;;;;;;48.23;38.60;;;4.30;99.90;;;;;;4999867;28;20451;-83
2022/12/19 10:41:15;;;;;;;43.80;37.37;;;4.30;99.90;;;;;;5001179;28;20926;-84
2022/12/19 10:43:54;;;;;;;45.30;38.80;;;4.40;99.90;;;;;;4996063;28;20448;-84
2022/12/19 10:46:33;;;;;;;39.77;35.47;;;4.40;99.90;;;;;;4995387;28;20463;-84
2022/12/19 10:49:06;;;;;;;45.43;40.40;;;4.50;99.90;;;;;;4995521;28;20463;-84
2022/12/19 10:51:36;;;;;;;43.13;38.20;;;4.50;99.90;;;;;;4997248;28;20465;-83
2022/12/19 10:54:04;;;;;;;44.10;38.23;;;4.50;99.90;;;;;;4995640;28;20459;-83
2022/12/19 10:56:33;;;;;;;45.40;39.53;;;4.50;99.90;;;;;;4995626;28;20464;-83
2022/12/19 10:59:16;;;;;;;42.10;36.90;;;4.60;99.90;;;;;;4995843;28;20484;-83
2022/12/19 11:01:45;;;;;;;42.80;38.10;;;4.70;99.90;;;;;;4996107;28;20539;-83
2022/12/19 11:04:31;;;;;;;40.63;36.40;;;4.90;99.90;;;;;;4996046;28;20475;-84
2022/12/19 11:07:18;;;;;;;42.63;38.00;;;4.70;99.90;;;;;;4994561;28;20510;-83
2022/12/19 11:09:47;;;;;;;42.47;37.87;;;4.70;99.90;;;;;;4995725;28;20445;-83
2022/12/19 11:12:35;;;;;;;42.57;37.97;;;4.80;99.90;;;;;;4995751;28;20468;-83
2022/12/19 11:15:23;;;;;;;45.80;41.20;;;4.80;99.90;;;;;;4997132;28;20472;-84
2022/12/19 11:18:13;;;;;;;45.30;40.40;;;4.90;99.90;;;;;;4997400;28;20445;-83
2022/12/19 11:21:04;;;;;;;46.40;41.57;;;5.00;99.90;;;;;;4995928;28;20548;-84
2022/12/19 11:23:57;;;;;;;48.37;43.37;;;5.10;99.90;;;;;;4999334;28;20453;-83
2022/12/19 11:26:46;;;;;;;47.40;42.33;;;5.10;99.90;;;;;;5001267;28;20443;-83
2022/12/19 11:29:44;;;;;;;48.47;43.23;;;5.20;99.90;;;;;;5003399;28;20444;-81
2022/12/19 11:32:35;;;;;;;47.67;42.73;;;5.30;99.90;;;;;;5000226;28;20472;-84
2022/12/19 11:35:18;;;;;;;48.87;43.37;;;5.40;99.90;;;;;;4998616;28;20865;-84
2022/12/19 11:37:52;;;;;;;47.90;42.70;;;5.40;99.90;;;;;;4998606;28;20930;-83
2022/12/19 11:40:33;;;;;;;46.67;41.80;;;5.40;99.90;;;;;;5000109;28;20485;-84
2022/12/19 11:43:07;;;;;;;49.50;41.63;;;5.50;99.90;;;;;;4998394;28;20503;-83
2022/12/19 11:46:00;;;;;;;47.80;42.77;;;5.60;99.90;;;;;;4999730;28;20484;-82
2022/12/19 11:48:37;;;;;;;48.47;43.17;;;5.50;99.90;;;;;;4998524;28;20441;-83
2022/12/19 11:51:14;;;;;;;51.23;43.63;;;5.60;99.90;;;;;;4998054;28;20559;-84
2022/12/19 11:53:52;;;;;;;46.40;41.70;;;5.80;99.90;;;;;;5003411;28;20416;-85
2022/12/19 11:56:24;;;;;;;48.10;41.80;;;5.70;99.90;;;;;;4997866;28;20452;-83
2022/12/19 11:58:56;;;;;;;46.90;42.07;;;5.70;99.90;;;;;;4998320;28;20444;-84
2022/12/19 12:01:49;;;;;;;48.00;42.80;;;5.80;99.90;;;;;;4999108;28;20438;-83
2022/12/19 12:04:54;;;;;;;47.93;42.17;;;5.80;99.90;;;;;;4999285;28;20504;-83
2022/12/19 12:07:22;;;;;;;47.10;42.23;;;5.90;99.90;;;;;;4998541;28;20448;-85
2022/12/19 12:10:16;;;;;;;47.80;42.57;;;5.90;99.90;;;;;;4999008;28;20802;-84
2022/12/19 12:13:20;;;;;;;48.23;43.07;;;6.00;99.90;;;;;;4999275;28;20457;-84
2022/12/19 12:16:11;;;;;;;47.27;42.17;;;6.00;99.90;;;;;;4999084;28;21085;-83
2022/12/19 12:19:11;;;;;;;49.80;44.10;;;6.00;99.90;;;;;;4998349;28;20828;-82
2022/12/19 12:22:08;;;;;;;49.80;44.57;;;6.10;99.90;;;;;;4998131;28;20441;-82
2022/12/19 12:25:14;;;;;;;49.60;43.47;;;6.10;99.90;;;;;;4997523;28;20464;-83
2022/12/19 12:28:24;;;;;;;50.97;45.17;;;6.10;99.90;;;;;;4996944;28;20445;-82
2022/12/19 12:31:35;;;;;;;50.73;44.50;;;6.20;99.90;;;;;;4997281;28;20950;-83
2022/12/19 12:34:53;;;;;;;50.17;44.80;;;6.20;99.90;;;;;;4996676;28;20891;-83
2022/12/19 12:37:50;;;;;;;50.17;44.93;;;6.20;99.90;;;;;;4997114;28;20878;-83
2022/12/19 12:40:51;;;;;;;51.43;45.27;;;6.30;99.90;;;;;;4998854;28;20942;-84
2022/12/19 12:43:35;;;;;;;52.30;44.87;;;6.30;99.90;;;;;;4997876;28;20527;-83
2022/12/19 12:46:04;;;;;;;52.40;45.03;;;6.30;99.90;;;;;;4996336;28;20993;-82
2022/12/19 12:48:37;;;;;;;51.80;43.53;;;6.30;99.90;;;;;;4996915;28;20518;-82
2022/12/19 12:51:07;;;;;;;50.60;45.27;;;6.40;99.90;;;;;;4998633;28;20445;-83
2022/12/19 12:53:38;;;;;;;50.80;44.60;;;6.40;99.90;;;;;;4996572;28;20473;-82
2022/12/19 12:56:09;;;;;;;50.67;44.90;;;6.40;99.90;;;;;;4996703;28;20523;-82
2022/12/19 12:59:05;;;;;;;53.03;47.10;;;6.40;99.90;;;;;;4997795;28;20448;-81
2022/12/19 13:01:36;;;;;;;51.10;45.63;;;6.50;99.90;;;;;;4996852;28;20543;-83
2022/12/19 13:04:18;;;;;;;50.83;45.47;;;6.50;99.90;;;;;;4999364;28;20432;-83
2022/12/19 13:07:23;;;;;;;52.50;46.50;;;6.60;99.90;;;;;;4999387;28;20503;-83
2022/12/19 13:10:04;;;;;;;52.43;45.90;;;6.60;99.90;;;;;;4999693;28;20547;-83
2022/12/19 13:15:38;;;;;;;55.10;46.27;;;6.60;99.90;;;;;;4999264;28;20473;-83
2022/12/19 13:18:39;;;;;;;49.80;44.60;;;6.70;99.90;;;;;;4999877;28;20453;-83
2022/12/19 13:21:09;;;;;;;51.80;46.50;;;6.60;99.90;;;;;;4999369;28;20459;-82